createdAt,value
2022-08-25T17:02:39.699Z,56.97
2022-08-25T17:06:51.842Z,48.40
2022-08-25T17:12:41.183Z,44.05
2022-08-25T17:16:55.650Z,57.22
2022-08-25T17:21:24.550Z,44.35
2022-08-25T17:25:29.806Z,46.53
2022-08-25T17:29:31.142Z,48.55
2022-08-25T17:33:35.924Z,47.10
2022-08-25T17:37:40.025Z,42.95
2022-08-25T17:42:26.190Z,50.75
2022-08-25T17:51:17.119Z,36.00
2022-08-25T17:55:26.996Z,36.85
2022-08-25T17:59:32.394Z,38.35
2022-08-25T18:03:34.015Z,42.03
2022-08-25T18:07:37.555Z,40.95
2022-08-25T18:11:55.933Z,39.38
2022-08-25T18:15:59.335Z,37.78
2022-08-25T18:20:01.099Z,57.58
2022-08-25T18:24:03.497Z,37.05
2022-08-25T18:28:15.773Z,45.92
2022-08-25T18:32:40.465Z,39.65
2022-08-25T18:36:47.084Z,36.88
2022-08-25T18:40:48.044Z,24.98
2022-08-25T18:44:53.551Z,37.38
2022-08-25T18:49:04.589Z,31.88
2022-08-25T18:53:07.762Z,40.65
2022-08-25T18:57:12.311Z,49.20
2022-08-25T19:01:19.836Z,32.83
2022-08-25T19:05:32.104Z,30.92
2022-08-25T19:14:12.378Z,42.92
2022-08-25T19:18:19.320Z,40.53
2022-08-25T19:22:40.744Z,29.60
2022-08-25T19:26:43.674Z,35.45
2022-08-25T19:30:50.579Z,39.15
2022-08-25T19:34:58.801Z,26.30
2022-08-25T19:39:01.379Z,32.40
2022-08-25T19:43:01.091Z,49.30
2022-08-25T19:47:36.458Z,35.85
2022-08-25T19:51:56.297Z,36.58
2022-08-25T19:56:22.570Z,33.75
2022-08-25T20:00:29.084Z,35.28
2022-08-25T20:04:29.489Z,24.55
2022-08-25T20:08:32.217Z,28.80
2022-08-25T20:12:38.608Z,33.17
2022-08-25T20:16:42.457Z,32.75
2022-08-25T20:20:42.460Z,19.98
2022-08-25T20:24:55.751Z,25.55
2022-08-25T20:28:57.015Z,29.70
2022-08-25T20:33:23.009Z,20.70
2022-08-25T20:37:27.921Z,24.90
2022-08-25T20:41:30.443Z,27.80
2022-08-25T20:45:31.213Z,39.40
2022-08-25T20:49:43.872Z,22.00
2022-08-25T20:53:55.252Z,25.20
2022-08-25T20:58:05.933Z,22.77
2022-08-25T21:02:08.097Z,27.50
2022-08-25T21:06:14.454Z,29.70
2022-08-25T21:10:32.422Z,33.67
2022-08-25T21:14:49.974Z,25.25
2022-08-25T21:19:10.987Z,24.60
2022-08-25T21:23:13.440Z,31.90
2022-08-25T21:27:17.532Z,23.92
2022-08-25T21:31:23.331Z,24.58
2022-08-25T21:35:33.531Z,26.67
2022-08-25T21:39:52.236Z,15.32
2022-08-25T21:43:52.961Z,29.30
2022-08-25T21:47:57.990Z,21.27
2022-08-25T21:52:01.025Z,29.45
2022-08-25T21:56:06.036Z,25.95
2022-08-25T22:00:08.846Z,25.83
2022-08-25T22:04:19.701Z,23.23
2022-08-25T22:12:20.826Z,24.52
2022-08-25T22:16:21.851Z,27.08
2022-08-25T22:20:25.172Z,25.70
2022-08-25T22:24:28.448Z,18.20
2022-08-25T22:28:29.421Z,21.67
2022-08-25T22:32:30.273Z,23.65
2022-08-25T22:36:35.985Z,20.23
2022-08-25T22:40:38.467Z,38.53
2022-08-25T22:44:42.021Z,24.90
2022-08-25T22:48:41.840Z,20.23
2022-08-25T22:52:48.833Z,23.23
2022-08-25T22:56:49.602Z,14.90
2022-08-25T23:00:50.249Z,22.75
2022-08-25T23:04:51.883Z,14.77
2022-08-25T23:08:59.341Z,19.42
2022-08-25T23:13:31.021Z,25.92
2022-08-25T23:17:34.497Z,17.70
2022-08-25T23:21:54.424Z,12.93
2022-08-25T23:26:01.331Z,21.42
2022-08-25T23:30:02.762Z,20.88
2022-08-25T23:34:05.250Z,20.77
2022-08-25T23:38:05.978Z,21.52
2022-08-25T23:42:09.885Z,22.08
2022-08-25T23:46:10.533Z,32.05
2022-08-25T23:50:11.564Z,17.98
2022-08-25T23:54:14.399Z,24.50
2022-08-25T23:58:16.832Z,14.40
